Time;durP1;ratioP1;P1;durP2;ratioP2;P2;SDS_P1;SDS_P2;PMS_P1;PMS_P2;Temp;Humidity;BMP_temperature;BMP_pressure;BME280_temperature;BME280_humidity;BME280_pressure;Samples;Min_cycle;Max_cycle;Signal;HPM_P1;HPM_P2
2021/12/10 00:01:50;;;;;;;68.90;37.30;;;;;;;3.15;78.20;99802.00;5030816;28;20183;-71
2021/12/10 00:04:17;;;;;;;79.33;37.97;;;;;;;3.20;78.76;99796.13;5018278;28;20429;-71
2021/12/10 00:06:46;;;;;;;66.73;37.30;;;;;;;2.88;79.71;99791.88;5018387;28;20422;-70
2021/12/10 00:09:17;;;;;;;77.47;36.83;;;;;;;2.78;79.55;99796.78;5020985;28;20489;-70
2021/12/10 00:11:51;;;;;;;79.50;39.00;;;;;;;2.94;80.47;99781.75;5038085;28;20691;-70
2021/12/10 00:14:18;;;;;;;74.60;37.70;;;;;;;2.74;81.80;99779.53;5037908;28;20668;-71
2021/12/10 00:16:44;;;;;;;78.20;37.63;;;;;;;2.95;80.33;99783.47;5039864;28;20492;-71
2021/12/10 00:19:35;;;;;;;66.50;35.70;;;;;;;2.66;80.55;99787.03;5036346;28;20460;-71
2021/12/10 00:22:07;;;;;;;65.60;35.80;;;;;;;2.73;80.63;99787.22;5047728;28;20793;-71
2021/12/10 00:24:32;;;;;;;74.37;37.27;;;;;;;2.75;81.20;99785.53;5021894;28;20419;-70
2021/12/10 00:26:59;;;;;;;85.23;40.40;;;;;;;2.79;81.33;99782.22;5021817;28;20421;-70
2021/12/10 00:29:25;;;;;;;85.37;39.07;;;;;;;3.19;79.75;99762.59;5028573;28;20191;-71
2021/12/10 00:32:01;;;;;;;79.97;39.80;;;;;;;2.95;80.44;99758.63;5040103;28;20533;-70
2021/12/10 00:34:37;;;;;;;68.70;37.80;;;;;;;2.75;80.15;99750.38;5041095;28;20209;-70
2021/12/10 00:37:05;;;;;;;80.07;39.10;;;;;;;3.09;79.70;99742.63;5041465;28;20408;-71
2021/12/10 00:39:36;;;;;;;86.67;40.87;;;;;;;2.95;80.22;99744.84;5032543;28;20429;-71
2021/12/10 00:42:04;;;;;;;78.77;40.40;;;;;;;2.78;80.59;99749.59;5020558;28;20461;-72
2021/12/10 00:44:29;;;;;;;70.63;37.03;;;;;;;2.73;81.14;99744.31;5021296;28;20461;-71
2021/12/10 00:46:55;;;;;;;62.77;35.57;;;;;;;2.32;81.79;99750.13;5021193;28;20462;-71
2021/12/10 00:49:20;;;;;;;72.27;38.27;;;;;;;2.76;81.29;99743.53;5050946;28;20545;-71
2021/12/10 00:51:46;;;;;;;82.00;38.43;;;;;;;2.95;81.13;99730.28;5020969;28;20222;-71
2021/12/10 00:54:12;;;;;;;81.50;38.57;;;;;;;3.06;79.86;99740.84;5021512;28;20209;-71
2021/12/10 00:56:40;;;;;;;76.33;38.10;;;;;;;2.66;81.90;99730.44;5021445;28;20209;-72
2021/12/10 00:59:05;;;;;;;67.60;37.67;;;;;;;3.33;79.73;99734.59;5027900;28;20189;-70
2021/12/10 01:01:32;;;;;;;73.00;39.90;;;;;;;3.20;79.08;99736.88;5040048;28;20425;-71
2021/12/10 01:04:04;;;;;;;75.37;38.47;;;;;;;2.46;81.83;99731.63;5041054;28;20174;-71
2021/12/10 01:06:29;;;;;;;70.50;38.27;;;;;;;3.00;80.53;99732.97;5040631;28;20424;-70
2021/12/10 01:08:59;;;;;;;74.07;36.20;;;;;;;2.91;79.89;99722.44;5039969;28;20428;-73
2021/12/10 01:11:31;;;;;;;70.53;37.17;;;;;;;2.80;80.44;99724.75;5040191;28;20201;-70
2021/12/10 01:14:08;;;;;;;71.93;35.10;;;;;;;2.59;81.30;99725.09;5040492;28;20436;-71
2021/12/10 01:25:08;;;;;;;71.70;36.63;;;;;;;2.76;81.11;99718.69;5040744;28;20447;-70
2021/12/10 01:27:37;;;;;;;78.73;35.87;;;;;;;2.56;81.65;99710.47;5038835;28;20780;-70
2021/12/10 01:30:20;;;;;;;72.00;36.97;;;;;;;2.95;80.14;99701.97;5039700;28;20827;-70
2021/12/10 01:32:49;;;;;;;62.00;37.77;;;;;;;2.90;80.47;99711.28;5039952;28;20437;-70
2021/12/10 01:35:18;;;;;;;75.37;37.83;;;;;;;2.62;82.03;99712.31;5039336;28;20511;-70
2021/12/10 01:37:44;;;;;;;68.67;36.30;;;;;;;2.66;80.97;99696.13;5039495;28;20424;-70
2021/12/10 01:40:10;;;;;;;69.43;36.77;;;;;;;2.84;81.12;99693.09;5025455;28;20441;-70
2021/12/10 01:42:46;;;;;;;72.47;37.43;;;;;;;2.72;80.65;99693.72;5019998;28;20214;-70
2021/12/10 01:45:21;;;;;;;70.97;37.70;;;;;;;2.79;80.47;99684.44;5020181;28;20791;-71
2021/12/10 01:47:51;;;;;;;76.83;37.53;;;;;;;3.02;80.30;99672.94;5020093;28;20495;-71
2021/12/10 01:50:17;;;;;;;71.77;34.93;;;;;;;3.00;79.88;99679.78;5035639;28;20428;-70
2021/12/10 01:52:42;;;;;;;61.27;33.77;;;;;;;3.27;78.86;99668.34;5039816;28;20762;-71
2021/12/10 01:55:08;;;;;;;72.80;39.00;;;;;;;3.38;78.40;99655.69;5039694;28;20248;-71
2021/12/10 01:57:37;;;;;;;74.87;37.63;;;;;;;3.29;78.60;99653.81;5037116;28;20206;-70
2021/12/10 02:00:10;;;;;;;81.47;38.37;;;;;;;3.62;77.69;99654.47;5024965;28;20812;-70
2021/12/10 02:02:37;;;;;;;61.90;35.07;;;;;;;2.82;79.08;99656.19;5026578;28;20476;-72
2021/12/10 02:05:06;;;;;;;27.27;16.50;;;;;;;9.74;84.72;99629.00;5021021;28;20437;-67
2021/12/10 02:07:31;;;;;;;49.27;29.77;;;;;;;11.08;64.97;99616.72;5036898;28;20429;-72
2021/12/10 02:09:56;;;;;;;61.37;34.17;;;;;;;5.10;70.81;99636.34;5040530;28;20432;-70
2021/12/10 02:12:23;;;;;;;49.03;32.43;;;;;;;4.25;74.37;99631.56;5031255;28;20191;-71
2021/12/10 02:14:58;;;;;;;55.47;32.23;;;;;;;4.10;76.11;99634.75;5026420;28;20234;-70
2021/12/10 02:17:25;;;;;;;60.90;35.47;;;;;;;3.93;76.26;99635.31;5039037;28;20676;-73
2021/12/10 02:19:50;;;;;;;58.50;32.80;;;;;;;3.68;77.29;99633.97;5039280;28;20759;-70
2021/12/10 02:22:15;;;;;;;66.57;35.27;;;;;;;3.93;76.89;99632.72;5027365;28;20613;-71
2021/12/10 02:24:41;;;;;;;60.90;33.47;;;;;;;3.69;77.48;99631.44;5019500;28;20179;-70
2021/12/10 02:27:07;;;;;;;67.43;36.10;;;;;;;2.96;78.98;99636.75;5019351;28;20525;-71
2021/12/10 02:29:35;;;;;;;69.87;34.17;;;;;;;3.10;78.19;99634.50;5019929;28;20179;-70
2021/12/10 02:32:00;;;;;;;63.07;33.70;;;;;;;3.37;78.77;99628.22;5019928;28;20424;-71
2021/12/10 02:34:27;;;;;;;67.40;35.47;;;;;;;3.97;78.48;99625.94;5019529;28;20895;-72
2021/12/10 02:36:53;;;;;;;60.70;33.57;;;;;;;3.73;78.01;99619.47;5052029;28;20211;-71
2021/12/10 02:39:22;;;;;;;64.80;35.20;;;;;;;3.60;79.29;99620.94;5027343;28;20454;-70
2021/12/10 02:41:47;;;;;;;58.13;33.43;;;;;;;3.71;77.93;99616.84;5038017;28;20539;-71
2021/12/10 02:44:18;;;;;;;61.90;34.57;;;;;;;3.88;77.05;99611.13;5021277;28;20504;-71
2021/12/10 02:46:43;;;;;;;66.57;34.40;;;;;;;3.91;77.08;99616.38;5038733;28;20178;-71
2021/12/10 02:49:10;;;;;;;60.50;34.63;;;;;;;3.71;77.63;99618.56;5031830;28;20530;-70
2021/12/10 02:51:36;;;;;;;64.60;34.93;;;;;;;3.16;81.00;99614.03;5019136;28;20229;-71
2021/12/10 02:54:04;;;;;;;60.30;33.90;;;;;;;3.59;78.82;99618.34;5038415;28;20816;-71
2021/12/10 02:56:30;;;;;;;67.97;35.63;;;;;;;3.91;77.52;99608.66;5019495;28;20214;-70
2021/12/10 02:58:59;;;;;;;56.70;33.87;;;;;;;3.43;78.72;99612.00;5019392;28;20422;-72
2021/12/10 03:01:36;;;;;;;62.97;34.63;;;;;;;3.11;79.48;99605.34;5023436;28;20178;-73
2021/12/10 03:04:01;;;;;;;61.97;32.40;;;;;;;3.13;80.90;99607.97;5038654;28;20420;-71
2021/12/10 03:06:28;;;;;;;64.10;33.70;;;;;;;3.47;81.06;99606.94;5038792;28;20872;-71
2021/12/10 03:08:54;;;;;;;65.17;34.53;;;;;;;3.36;79.73;99609.28;5037504;28;20266;-71
2021/12/10 03:11:26;;;;;;;67.50;34.20;;;;;;;3.39;79.48;99605.06;5038986;28;20445;-71
2021/12/10 03:13:52;;;;;;;63.10;34.47;;;;;;;3.33;79.91;99605.81;5038711;28;20178;-69
2021/12/10 03:16:18;;;;;;;57.17;34.67;;;;;;;3.10;79.35;99593.31;5039266;28;20548;-71
2021/12/10 03:18:44;;;;;;;64.70;32.90;;;;;;;3.42;78.76;99598.22;5031718;28;20476;-71
2021/12/10 03:21:10;;;;;;;60.83;34.70;;;;;;;3.39;79.83;99602.47;5018608;28;20463;-71
2021/12/10 03:23:42;;;;;;;64.53;34.80;;;;;;;3.18;78.79;99596.03;5051195;28;20209;-71
2021/12/10 03:26:10;;;;;;;66.27;35.80;;;;;;;3.01;81.73;99603.41;5049770;28;20428;-71
2021/12/10 03:28:37;;;;;;;63.60;35.50;;;;;;;3.52;79.94;99600.16;5022819;28;20429;-71
2021/12/10 03:31:03;;;;;;;55.70;32.20;;;;;;;3.01;80.55;99605.97;5037624;28;20495;-70
2021/12/10 03:33:29;;;;;;;53.40;32.50;;;;;;;3.27;79.88;99597.94;5037925;28;20391;-70
2021/12/10 03:35:54;;;;;;;65.23;34.40;;;;;;;3.61;78.06;99589.16;5038972;28;20456;-70
2021/12/10 03:38:23;;;;;;;62.37;33.47;;;;;;;3.50;78.24;99596.69;5025881;28;20463;-70
2021/12/10 03:40:48;;;;;;;58.37;32.50;;;;;;;2.76;80.70;99604.56;5038352;28;20182;-71
2021/12/10 03:43:15;;;;;;;62.93;36.47;;;;;;;3.41;79.20;99599.09;5028398;28;20432;-70
2021/12/10 03:45:46;;;;;;;63.10;35.30;;;;;;;3.17;81.17;99595.16;5040757;28;20515;-71
2021/12/10 03:48:15;;;;;;;63.00;33.83;;;;;;;3.52;80.33;99591.59;5050216;28;20429;-71
2021/12/10 03:50:41;;;;;;;60.70;33.40;;;;;;;3.15;79.55;99593.38;5038583;28;20515;-71
2021/12/10 03:53:07;;;;;;;66.30;34.17;;;;;;;3.20;79.72;99592.66;5043553;28;20420;-71
2021/12/10 03:55:32;;;;;;;63.43;33.43;;;;;;;3.75;79.06;99588.56;5046897;28;20463;-71
2021/12/10 03:57:58;;;;;;;65.70;32.33;;;;;;;3.47;79.00;99582.88;5055381;28;20182;-70
2021/12/10 04:00:28;;;;;;;58.70;34.77;;;;;;;3.59;78.56;99588.28;5056184;28;20264;-70
2021/12/10 04:02:54;;;;;;;54.10;32.77;;;;;;;3.52;78.38;99578.69;5062245;28;20303;-70
2021/12/10 04:05:20;;;;;;;53.60;31.40;;;;;;;3.59;77.65;99585.69;5061971;28;20821;-70
2021/12/10 04:07:45;;;;;;;66.33;34.17;;;;;;;3.15;78.99;99585.66;5062041;28;20459;-71
2021/12/10 04:10:13;;;;;;;55.23;30.30;;;;;;;3.47;79.06;99588.03;5062402;28;20173;-71
2021/12/10 04:12:38;;;;;;;55.47;33.40;;;;;;;2.98;78.98;99583.59;5061571;28;20428;-70
2021/12/10 04:15:06;;;;;;;57.40;32.60;;;;;;;3.32;80.61;99588.59;5060968;28;20513;-71
2021/12/10 04:17:32;;;;;;;54.30;30.80;;;;;;;3.64;77.53;99586.66;5062309;28;20166;-71
2021/12/10 04:19:57;;;;;;;61.03;32.07;;;;;;;3.66;78.65;99581.53;5061671;28;20420;-70
2021/12/10 04:22:32;;;;;;;63.27;33.47;;;;;;;3.81;76.55;99578.38;5061738;28;20419;-70
2021/12/10 04:25:01;;;;;;;50.77;29.77;;;;;;;3.93;76.36;99570.00;5061662;28;20447;-70
2021/12/10 04:27:27;;;;;;;58.33;31.23;;;;;;;3.60;77.28;99579.72;5061435;28;20765;-71
2021/12/10 04:29:56;;;;;;;61.23;31.67;;;;;;;3.21;79.55;99570.34;5061459;28;20462;-72
2021/12/10 04:32:21;;;;;;;58.30;32.90;;;;;;;3.53;78.15;99564.94;5055392;28;20586;-71
2021/12/10 04:34:47;;;;;;;53.37;28.83;;;;;;;3.61;78.24;99563.38;5033898;28;20437;-71
2021/12/10 04:37:12;;;;;;;57.70;30.10;;;;;;;3.50;78.13;99563.19;5022136;28;20182;-72
2021/12/10 04:39:44;;;;;;;65.60;30.80;;;;;;;3.31;76.99;99567.09;5022445;28;20190;-71
2021/12/10 04:42:10;;;;;;;53.67;31.73;;;;;;;3.70;77.44;99566.13;5021315;28;20266;-71
2021/12/10 04:44:35;;;;;;;49.80;28.93;;;;;;;3.55;78.17;99565.88;5021625;28;20473;-71
2021/12/10 04:47:01;;;;;;;50.90;29.30;;;;;;;3.79;78.24;99565.44;5022202;28;20191;-70
2021/12/10 04:49:26;;;;;;;49.67;30.17;;;;;;;3.66;77.64;99568.66;5032336;28;20178;-70
2021/12/10 04:51:54;;;;;;;50.40;28.27;;;;;;;3.97;76.11;99556.31;5021211;28;20604;-72
2021/12/10 04:54:22;;;;;;;54.90;30.27;;;;;;;3.36;77.39;99562.91;5036432;28;20190;-71
2021/12/10 04:56:50;;;;;;;60.47;30.83;;;;;;;3.76;77.95;99551.63;5029362;28;20898;-70
2021/12/10 04:59:17;;;;;;;48.63;28.70;;;;;;;3.64;77.13;99537.69;5058466;28;20440;-70
2021/12/10 05:01:43;;;;;;;48.40;29.27;;;;;;;3.47;78.40;99539.09;5050918;28;20432;-71
2021/12/10 05:04:10;;;;;;;50.77;28.67;;;;;;;3.83;78.57;99540.56;5060435;28;20423;-71
2021/12/10 05:06:36;;;;;;;45.83;27.67;;;;;;;3.27;79.44;99544.69;5057605;28;20493;-70
2021/12/10 05:09:05;;;;;;;50.73;28.20;;;;;;;3.75;77.20;99534.41;5060541;28;20507;-71
2021/12/10 05:11:30;;;;;;;47.03;28.57;;;;;;;3.46;78.05;99542.50;5030431;28;20785;-71
2021/12/10 05:13:55;;;;;;;49.43;28.23;;;;;;;3.44;80.07;99541.63;5037548;28;20516;-70
2021/12/10 05:16:25;;;;;;;52.93;29.80;;;;;;;3.67;78.02;99522.28;5040670;28;20444;-71
2021/12/10 05:18:57;;;;;;;50.00;29.00;;;;;;;3.16;78.97;99535.91;5040976;28;20209;-70
2021/12/10 05:21:23;;;;;;;47.13;28.50;;;;;;;3.53;77.90;99522.03;5039981;28;20521;-71
2021/12/10 05:23:49;;;;;;;46.37;27.97;;;;;;;3.82;77.48;99518.25;5040298;28;20428;-70
2021/12/10 05:26:14;;;;;;;46.33;27.70;;;;;;;3.69;77.38;99517.13;5040672;28;20413;-71
2021/12/10 05:28:39;;;;;;;46.73;28.17;;;;;;;3.59;78.04;99505.81;5026497;28;20194;-71
2021/12/10 05:31:05;;;;;;;47.57;28.40;;;;;;;3.75;78.71;99511.22;5040318;28;20288;-70
2021/12/10 05:33:30;;;;;;;47.67;26.43;;;;;;;3.94;77.70;99513.28;5036461;28;20186;-71
2021/12/10 05:36:01;;;;;;;48.47;29.03;;;;;;;3.39;78.27;99520.03;5049771;28;20201;-70
2021/12/10 05:38:27;;;;;;;49.03;28.60;;;;;;;3.91;76.88;99507.19;5059960;28;20173;-71
2021/12/10 05:40:54;;;;;;;47.77;28.63;;;;;;;3.60;76.61;99507.56;5060135;28;20420;-70
2021/12/10 05:43:20;;;;;;;49.13;28.90;;;;;;;3.56;77.08;99499.72;5041832;28;20439;-71
2021/12/10 05:45:46;;;;;;;47.33;27.90;;;;;;;3.60;78.29;99497.25;5026139;28;20444;-72
2021/12/10 05:48:12;;;;;;;43.23;26.30;;;;;;;2.96;79.45;99491.72;5025671;28;20183;-72
2021/12/10 05:50:37;;;;;;;47.10;28.00;;;;;;;3.36;77.77;99483.06;5029346;28;20483;-71
2021/12/10 05:53:04;;;;;;;48.57;26.37;;;;;;;3.13;79.04;99494.66;5038162;28;20444;-71
2021/12/10 05:55:30;;;;;;;49.03;28.50;;;;;;;3.11;79.28;99484.31;5020116;28;20195;-70
2021/12/10 05:57:55;;;;;;;48.20;28.17;;;;;;;3.46;77.85;99475.50;5023309;28;20451;-70
2021/12/10 06:00:25;;;;;;;47.67;29.53;;;;;;;3.32;78.73;99475.25;5030851;28;20461;-70
2021/12/10 06:02:51;;;;;;;60.83;30.40;;;;;;;3.08;79.55;99473.09;5026428;28;20178;-71
2021/12/10 06:05:16;;;;;;;47.53;27.83;;;;;;;3.50;78.39;99462.69;5021556;28;20437;-70
2021/12/10 06:07:42;;;;;;;48.63;28.93;;;;;;;3.18;77.53;99463.00;5022305;28;20189;-70
2021/12/10 06:10:09;;;;;;;45.03;26.00;;;;;;;2.70;81.11;99461.19;5031338;28;20202;-71
2021/12/10 06:12:35;;;;;;;45.07;25.10;;;;;;;2.56;80.65;99472.88;5059264;28;20181;-72
2021/12/10 06:15:04;;;;;;;41.60;27.20;;;;;;;3.19;80.84;99474.16;5053201;28;20467;-70
2021/12/10 06:17:30;;;;;;;49.37;27.70;;;;;;;3.31;77.87;99474.38;5057655;28;20435;-70
2021/12/10 06:19:56;;;;;;;51.47;28.70;;;;;;;3.35;nan;99465.00;5031603;28;20533;-70
2021/12/10 06:22:21;;;;;;;51.70;28.43;;;;;;;3.02;79.01;99471.28;5019289;28;20446;-71
2021/12/10 06:24:47;;;;;;;46.30;28.00;;;;;;;2.84;77.98;99467.50;5019173;28;20182;-71
2021/12/10 06:27:12;;;;;;;53.70;27.63;;;;;;;3.03;79.88;99466.16;5035924;28;20515;-71
2021/12/10 06:29:41;;;;;;;45.90;26.23;;;;;;;3.10;79.01;99468.81;5058921;28;20178;-71
2021/12/10 06:32:08;;;;;;;44.93;25.70;;;;;;;3.42;78.46;99473.72;5059198;28;20186;-70
2021/12/10 06:34:34;;;;;;;44.53;27.50;;;;;;;3.52;76.77;99473.06;5056198;28;20728;-70
2021/12/10 06:36:59;;;;;;;42.10;26.60;;;;;;;3.73;77.37;99471.69;5018734;28;20466;-70
2021/12/10 06:39:25;;;;;;;48.97;28.20;;;;;;;3.53;76.96;99470.50;5052177;28;20178;-70
2021/12/10 06:41:51;;;;;;;49.43;27.97;;;;;;;3.64;77.74;99469.78;5024659;28;20174;-70
2021/12/10 06:44:17;;;;;;;48.77;27.83;;;;;;;3.34;77.67;99471.88;5038726;28;20174;-70
2021/12/10 06:46:44;;;;;;;48.27;27.80;;;;;;;3.39;76.82;99473.66;5039215;28;20401;-71
2021/12/10 06:49:09;;;;;;;44.70;27.07;;;;;;;2.78;79.00;99472.50;5047060;28;20424;-72
2021/12/10 06:51:35;;;;;;;46.73;27.13;;;;;;;2.67;79.90;99476.56;5037821;28;20542;-69
2021/12/10 06:54:00;;;;;;;47.37;27.33;;;;;;;3.01;79.29;99475.53;5059615;28;20577;-71
2021/12/10 06:56:28;;;;;;;48.20;27.73;;;;;;;2.91;78.09;99468.47;5057696;28;20206;-71
2021/12/10 06:58:54;;;;;;;43.03;27.20;;;;;;;3.11;78.31;99466.31;5032751;28;20175;-70
2021/12/10 07:01:24;;;;;;;45.70;25.00;;;;;;;2.62;79.28;99462.72;5019110;28;20667;-71
2021/12/10 07:03:53;;;;;;;48.47;27.40;;;;;;;2.80;79.89;99457.09;5033983;28;20560;-71
2021/12/10 07:06:19;;;;;;;51.77;28.50;;;;;;;2.73;79.90;99465.53;5037848;28;20437;-72
2021/12/10 07:08:46;;;;;;;47.90;26.53;;;;;;;2.93;79.38;99464.22;5019709;28;20817;-71
2021/12/10 07:11:14;;;;;;;50.20;27.90;;;;;;;2.64;79.71;99463.66;5018708;28;20462;-70
2021/12/10 07:13:41;;;;;;;43.60;27.13;;;;;;;2.70;79.56;99464.59;5039317;28;20429;-72
2021/12/10 07:16:07;;;;;;;49.77;28.17;;;;;;;3.16;78.04;99468.94;5022135;28;20540;-69
2021/12/10 07:18:33;;;;;;;50.43;28.13;;;;;;;3.09;77.83;99472.25;5021630;28;20456;-71
2021/12/10 07:20:59;;;;;;;49.57;30.23;;;;;;;3.31;76.99;99469.22;5038176;28;20417;-71
2021/12/10 07:23:24;;;;;;;48.50;29.37;;;;;;;3.21;77.42;99462.19;5040386;28;20284;-70
2021/12/10 07:25:50;;;;;;;50.53;28.03;;;;;;;3.29;77.42;99464.88;5018315;28;20452;-69
2021/12/10 07:28:16;;;;;;;51.37;28.47;;;;;;;3.16;77.96;99462.09;5018460;28;20167;-70
2021/12/10 07:30:42;;;;;;;49.67;29.50;;;;;;;3.12;77.63;99472.31;5021741;28;20428;-70
2021/12/10 07:33:08;;;;;;;51.60;29.67;;;;;;;3.37;76.43;99463.34;5037933;28;20205;-72
2021/12/10 07:35:35;;;;;;;52.17;28.23;;;;;;;3.39;76.95;99471.09;5035213;28;20214;-70
2021/12/10 07:38:00;;;;;;;49.23;26.50;;;;;;;3.46;76.44;99462.63;5038493;28;20821;-71
2021/12/10 07:40:29;;;;;;;48.83;28.83;;;;;;;3.48;76.73;99461.81;5036126;28;20410;-70
2021/12/10 07:42:55;;;;;;;58.73;30.33;;;;;;;3.77;75.49;99450.25;5034353;28;20190;-70
2021/12/10 07:45:22;;;;;;;55.80;27.80;;;;;;;3.30;77.03;99458.91;5018811;28;20439;-70
2021/12/10 07:47:50;;;;;;;57.10;28.90;;;;;;;3.49;75.46;99448.09;5018065;28;20524;-69
2021/12/10 07:50:20;;;;;;;57.13;30.00;;;;;;;3.22;77.22;99445.00;5018252;28;20795;-70
2021/12/10 07:52:46;;;;;;;52.20;29.03;;;;;;;3.13;77.12;99438.00;5017816;28;20443;-71
2021/12/10 07:55:14;;;;;;;50.57;29.77;;;;;;;2.77;79.37;99441.59;5018184;28;20883;-70
2021/12/10 07:57:40;;;;;;;51.27;29.00;;;;;;;2.97;78.77;99447.13;5019059;28;20559;-70
2021/12/10 08:00:08;;;;;;;49.47;27.97;;;;;;;3.21;78.89;99436.44;5018740;28;20707;-70
2021/12/10 08:02:34;;;;;;;48.83;29.43;;;;;;;3.10;79.24;99438.81;5019723;28;20409;-71
2021/12/10 08:04:59;;;;;;;51.03;28.57;;;;;;;2.56;79.50;99435.16;5021528;28;20740;-69
2021/12/10 08:07:25;;;;;;;50.40;29.30;;;;;;;2.92;79.43;99444.44;5031950;28;20568;-70
2021/12/10 08:09:51;;;;;;;48.33;30.00;;;;;;;2.39;80.06;99451.94;5039988;28;20175;-70
2021/12/10 08:12:17;;;;;;;52.40;30.30;;;;;;;2.54;79.62;99441.97;5038562;28;20485;-71
2021/12/10 08:14:42;;;;;;;47.27;28.60;;;;;;;2.57;80.19;99439.50;5035424;28;20457;-70
2021/12/10 08:17:08;;;;;;;53.57;28.80;;;;;;;2.80;78.83;99433.91;5018916;28;20537;-71
2021/12/10 08:19:33;;;;;;;59.83;29.80;;;;;;;3.09;77.15;99434.50;5018596;28;20171;-70
2021/12/10 08:21:59;;;;;;;50.87;28.50;;;;;;;2.93;79.14;99453.91;5018233;28;20213;-70
2021/12/10 08:24:24;;;;;;;56.57;30.50;;;;;;;3.50;76.47;99441.22;5018116;28;20183;-70
2021/12/10 08:26:50;;;;;;;46.70;26.93;;;;;;;2.65;78.16;99445.66;5018551;28;20229;-71
2021/12/10 08:29:16;;;;;;;48.97;29.00;;;;;;;3.30;77.39;99446.03;5017861;28;20465;-71
2021/12/10 08:31:42;;;;;;;50.90;28.80;;;;;;;3.24;76.69;99441.63;5020064;28;20537;-71
2021/12/10 08:34:07;;;;;;;56.70;28.20;;;;;;;3.25;76.52;99438.22;5037320;28;20570;-71
2021/12/10 08:36:33;;;;;;;46.30;27.60;;;;;;;3.13;76.81;99440.56;5038166;28;20213;-71
2021/12/10 08:39:00;;;;;;;49.83;27.70;;;;;;;2.90;77.21;99451.28;5041093;28;20185;-69
2021/12/10 08:41:28;;;;;;;51.47;27.80;;;;;;;2.86;78.13;99446.94;5040438;28;20428;-71
2021/12/10 08:43:56;;;;;;;48.60;27.87;;;;;;;2.67;80.34;99446.53;5031357;28;20433;-70
2021/12/10 08:46:23;;;;;;;49.20;27.13;;;;;;;2.98;76.89;99449.72;5041113;28;20424;-71
2021/12/10 08:48:49;;;;;;;41.73;26.33;;;;;;;3.17;77.06;99437.22;5036518;28;20429;-70
2021/12/10 08:51:18;;;;;;;43.80;26.30;;;;;;;2.67;78.47;99431.09;5027634;28;20806;-71
2021/12/10 08:53:44;;;;;;;42.90;27.37;;;;;;;3.07;77.64;99430.16;5020999;28;20175;-71
2021/12/10 08:56:10;;;;;;;40.90;24.33;;;;;;;2.43;78.29;99443.47;5021537;28;20748;-71
2021/12/10 08:58:35;;;;;;;39.77;25.07;;;;;;;3.04;77.09;99430.97;5046390;28;20253;-71
2021/12/10 09:01:07;;;;;;;45.90;25.90;;;;;;;2.72;78.03;99440.63;5040820;28;20862;-71
2021/12/10 09:03:33;;;;;;;45.07;24.23;;;;;;;2.79;77.95;99439.94;5041057;28;20166;-70
2021/12/10 09:05:59;;;;;;;43.43;26.17;;;;;;;2.93;78.45;99438.47;5039834;28;20491;-71
2021/12/10 09:08:24;;;;;;;44.07;24.70;;;;;;;2.73;78.42;99442.38;5039789;28;20186;-70
2021/12/10 09:10:50;;;;;;;45.27;25.13;;;;;;;3.57;76.37;99442.19;5041200;28;20860;-71
2021/12/10 09:13:20;;;;;;;45.50;26.43;;;;;;;3.39;75.65;99441.03;5040678;28;20528;-70
2021/12/10 09:15:52;;;;;;;40.97;23.80;;;;;;;3.41;76.30;99433.31;5040661;28;20206;-71
2021/12/10 09:18:17;;;;;;;39.00;24.57;;;;;;;3.20;76.24;99438.13;5038917;28;20410;-63
2021/12/10 09:20:46;;;;;;;43.47;23.80;;;;;;;2.74;77.02;99439.81;5040304;28;20399;-68
2021/12/10 09:23:14;;;;;;;41.70;25.13;;;;;;;3.37;76.28;99435.88;5032166;28;20444;-66
2021/12/10 09:25:41;;;;;;;42.93;24.73;;;;;;;3.13;76.85;99432.84;5021002;28;20520;-66
2021/12/10 09:28:06;;;;;;;42.83;24.17;;;;;;;3.14;76.87;99432.00;5042388;28;20455;-65
2021/12/10 09:30:33;;;;;;;44.20;25.23;;;;;;;3.67;74.79;99432.06;5058642;28;20460;-66
2021/12/10 09:32:59;;;;;;;43.20;25.80;;;;;;;3.87;74.16;99424.66;5059293;28;20567;-67
2021/12/10 09:35:31;;;;;;;43.73;23.60;;;;;;;3.27;75.88;99421.06;5031214;28;20889;-68
2021/12/10 09:37:57;;;;;;;32.40;19.93;;;;;;;2.86;77.03;99434.91;5038513;28;20451;-68
2021/12/10 09:40:26;;;;;;;42.40;24.30;;;;;;;3.41;75.63;99423.91;5030919;28;20427;-68
2021/12/10 09:42:51;;;;;;;45.53;26.10;;;;;;;2.93;77.62;99427.31;5035364;28;20432;-68
2021/12/10 09:45:20;;;;;;;41.93;23.90;;;;;;;3.36;75.62;99415.22;5060567;28;20412;-68
2021/12/10 09:47:46;;;;;;;39.17;22.93;;;;;;;3.19;77.01;99412.34;5057491;28;20192;-69
2021/12/10 09:50:14;;;;;;;39.03;23.00;;;;;;;3.80;74.06;99412.53;5039237;28;20388;-68
2021/12/10 09:52:39;;;;;;;43.40;23.10;;;;;;;3.85;73.85;99404.84;5048785;28;20233;-67
2021/12/10 09:55:08;;;;;;;35.20;22.07;;;;;;;4.16;72.79;99405.31;5036799;28;20414;-67
2021/12/10 09:57:35;;;;;;;38.73;22.80;;;;;;;4.14;71.79;99401.81;5029859;28;20426;-68
2021/12/10 10:00:11;;;;;;;35.17;22.70;;;;;;;4.66;72.06;99407.66;5039757;28;20444;-68
2021/12/10 10:02:36;;;;;;;37.50;22.10;;;;;;;4.18;72.36;99413.91;5022296;28;20788;-69
2021/12/10 10:05:05;;;;;;;41.47;22.43;;;;;;;4.53;71.37;99400.59;5046903;28;20467;-68
2021/12/10 10:07:30;;;;;;;34.30;22.10;;;;;;;4.34;72.32;99392.66;5039641;28;20171;-68
2021/12/10 10:10:05;;;;;;;39.73;21.80;;;;;;;3.92;73.08;99398.06;5039745;28;20528;-68
2021/12/10 10:12:33;;;;;;;34.80;20.80;;;;;;;4.29;71.90;99394.31;5033972;28;20240;-68
2021/12/10 10:15:00;;;;;;;40.83;22.07;;;;;;;3.87;73.40;99392.88;5022114;28;20424;-69
2021/12/10 10:17:25;;;;;;;34.30;20.50;;;;;;;4.18;72.25;99389.00;5028217;28;20447;-68
2021/12/10 10:19:52;;;;;;;34.50;20.00;;;;;;;3.59;73.62;99386.41;5019470;28;20648;-70
2021/12/10 10:22:21;;;;;;;33.53;21.30;;;;;;;3.90;72.16;99379.13;5037339;28;20450;-68
2021/12/10 10:24:46;;;;;;;35.60;20.20;;;;;;;4.12;72.67;99382.88;5038998;28;20464;-69
2021/12/10 10:27:28;;;;;;;35.00;21.20;;;;;;;4.07;73.90;99372.50;5036742;28;20468;-68
2021/12/10 10:30:05;;;;;;;32.77;19.63;;;;;;;3.70;74.57;99380.56;5039290;28;20220;-69
2021/12/10 10:32:32;;;;;;;30.80;19.23;;;;;;;3.71;72.73;99371.13;5037336;28;20476;-68
2021/12/10 10:35:04;;;;;;;29.47;19.30;;;;;;;4.07;73.53;99369.06;5019244;28;20483;-69
2021/12/10 10:37:31;;;;;;;34.60;19.70;;;;;;;4.30;71.39;99361.63;5019096;28;20434;-68
2021/12/10 10:39:57;;;;;;;32.10;20.70;;;;;;;4.54;70.43;99359.34;5036288;28;20417;-68
2021/12/10 10:42:25;;;;;;;32.00;20.30;;;;;;;4.16;71.33;99348.56;5026019;28;20484;-68
2021/12/10 10:44:52;;;;;;;35.53;19.70;;;;;;;4.12;71.74;99354.53;5041982;28;20682;-69
2021/12/10 10:47:23;;;;;;;32.70;20.57;;;;;;;4.38;72.14;99350.56;5046103;28;20417;-69
2021/12/10 10:49:56;;;;;;;31.07;18.40;;;;;;;3.23;74.44;99352.31;5021637;28;20422;-68
2021/12/10 10:52:33;;;;;;;30.10;18.30;;;;;;;4.60;70.90;99349.94;5038405;28;20496;-68
2021/12/10 10:55:14;;;;;;;29.20;17.57;;;;;;;4.70;69.33;99351.78;5039079;28;20432;-70
2021/12/10 10:57:50;;;;;;;27.00;18.07;;;;;;;4.96;69.36;99349.47;5034537;28;20439;-69
2021/12/10 11:00:28;;;;;;;29.20;18.13;;;;;;;4.50;69.94;99343.81;5026105;28;20678;-70
2021/12/10 11:02:58;;;;;;;30.73;19.50;;;;;;;4.55;69.80;99348.16;5019168;28;20413;-68
2021/12/10 11:05:24;;;;;;;31.07;17.73;;;;;;;4.51;69.31;99345.53;5032798;28;20463;-70
2021/12/10 11:07:55;;;;;;;31.30;18.77;;;;;;;5.10;69.00;99346.16;5039936;28;20535;-70
2021/12/10 11:10:31;;;;;;;28.80;18.83;;;;;;;4.47;70.20;99341.19;5059580;28;20426;-72
2021/12/10 11:13:18;;;;;;;28.80;19.60;;;;;;;5.27;68.62;99331.66;5053504;28;20487;-69
2021/12/10 11:16:01;;;;;;;26.60;17.10;;;;;;;4.70;68.79;99336.28;5029401;28;20450;-69
2021/12/10 11:18:27;;;;;;;28.00;17.00;;;;;;;4.55;69.23;99332.69;5052956;28;20653;-70
2021/12/10 11:20:54;;;;;;;26.10;17.60;;;;;;;5.86;65.84;99321.75;5021058;28;20469;-69
2021/12/10 11:23:25;;;;;;;27.93;17.63;;;;;;;6.09;65.05;99323.59;5037757;28;20428;-69
2021/12/10 11:25:53;;;;;;;25.83;18.07;;;;;;;6.26;65.19;99319.38;5038245;28;20730;-70
2021/12/10 11:28:31;;;;;;;27.77;18.10;;;;;;;5.08;67.28;99329.78;5036941;28;20729;-70
2021/12/10 11:31:05;;;;;;;28.57;17.20;;;;;;;5.29;67.41;99327.38;5037927;28;20380;-73
2021/12/10 11:33:40;;;;;;;28.23;16.93;;;;;;;4.83;67.70;99330.41;5029516;28;20412;-74
2021/12/10 11:36:12;;;;;;;27.23;18.10;;;;;;;5.07;67.78;99331.47;5022411;28;20582;-76